sensor_id;sensor_type;location;lat;lon;timestamp;P1;durP1;ratioP1;P2;durP2;ratioP2
67363;SDS011;54250;45.572;38.086;2022-12-20T00:01:39;0.38;;;0.38;;
67363;SDS011;54250;45.572;38.086;2022-12-20T00:04:05;1.23;;;1.13;;
67363;SDS011;54250;45.572;38.086;2022-12-20T00:06:35;0.50;;;0.50;;
67363;SDS011;54250;45.572;38.086;2022-12-20T00:09:02;1.38;;;0.55;;
67363;SDS011;54250;45.572;38.086;2022-12-20T00:11:31;0.13;;;0.13;;
67363;SDS011;54250;45.572;38.086;2022-12-20T00:13:57;1.30;;;0.38;;
67363;SDS011;54250;45.572;38.086;2022-12-20T00:16:27;1.17;;;1.10;;
67363;SDS011;54250;45.572;38.086;2022-12-20T00:18:55;0.28;;;0.25;;
67363;SDS011;54250;45.572;38.086;2022-12-20T00:21:22;0.90;;;0.75;;
67363;SDS011;54250;45.572;38.086;2022-12-20T00:23:48;1.80;;;1.05;;
67363;SDS011;54250;45.572;38.086;2022-12-20T00:26:17;0.93;;;0.82;;
67363;SDS011;54250;45.572;38.086;2022-12-20T00:28:45;0.20;;;0.20;;
67363;SDS011;54250;45.572;38.086;2022-12-20T00:31:12;1.20;;;1.10;;
67363;SDS011;54250;45.572;38.086;2022-12-20T00:33:43;0.10;;;0.10;;
67363;SDS011;54250;45.572;38.086;2022-12-20T00:36:11;1.13;;;0.70;;
67363;SDS011;54250;45.572;38.086;2022-12-20T00:38:37;0.75;;;0.75;;
67363;SDS011;54250;45.572;38.086;2022-12-20T00:43:30;1.10;;;0.55;;
67363;SDS011;54250;45.572;38.086;2022-12-20T00:45:57;0.38;;;0.38;;
67363;SDS011;54250;45.572;38.086;2022-12-20T00:48:23;1.25;;;0.77;;
67363;SDS011;54250;45.572;38.086;2022-12-20T00:50:49;0.30;;;0.30;;
67363;SDS011;54250;45.572;38.086;2022-12-20T00:53:15;0.52;;;0.52;;
67363;SDS011;54250;45.572;38.086;2022-12-20T00:55:45;3.58;;;0.75;;
67363;SDS011;54250;45.572;38.086;2022-12-20T00:58:12;0.60;;;0.60;;
67363;SDS011;54250;45.572;38.086;2022-12-20T01:00:38;0.10;;;0.10;;
67363;SDS011;54250;45.572;38.086;2022-12-20T01:03:06;0.80;;;0.80;;
67363;SDS011;54250;45.572;38.086;2022-12-20T01:05:32;0.25;;;0.25;;
67363;SDS011;54250;45.572;38.086;2022-12-20T01:07:59;0.47;;;0.35;;
67363;SDS011;54250;45.572;38.086;2022-12-20T01:10:25;0.20;;;0.20;;
67363;SDS011;54250;45.572;38.086;2022-12-20T01:12:52;0.20;;;0.20;;
67363;SDS011;54250;45.572;38.086;2022-12-20T01:15:19;0.40;;;0.40;;
67363;SDS011;54250;45.572;38.086;2022-12-20T01:17:45;0.43;;;0.43;;
67363;SDS011;54250;45.572;38.086;2022-12-20T01:20:12;0.35;;;0.35;;
67363;SDS011;54250;45.572;38.086;2022-12-20T01:22:38;0.08;;;0.08;;
67363;SDS011;54250;45.572;38.086;2022-12-20T01:25:04;0.00;;;0.00;;
67363;SDS011;54250;45.572;38.086;2022-12-20T01:27:30;0.25;;;0.25;;
67363;SDS011;54250;45.572;38.086;2022-12-20T01:29:56;0.17;;;0.17;;
67363;SDS011;54250;45.572;38.086;2022-12-20T01:32:22;0.47;;;0.45;;
67363;SDS011;54250;45.572;38.086;2022-12-20T01:34:48;0.85;;;0.63;;
67363;SDS011;54250;45.572;38.086;2022-12-20T01:37:14;0.52;;;0.38;;
67363;SDS011;54250;45.572;38.086;2022-12-20T01:39:40;0.75;;;0.65;;
67363;SDS011;54250;45.572;38.086;2022-12-20T01:42:08;0.52;;;0.52;;
67363;SDS011;54250;45.572;38.086;2022-12-20T01:47:07;1.20;;;0.85;;
67363;SDS011;54250;45.572;38.086;2022-12-20T01:49:37;0.43;;;0.30;;
67363;SDS011;54250;45.572;38.086;2022-12-20T01:52:20;0.32;;;0.32;;
67363;SDS011;54250;45.572;38.086;2022-12-20T01:55:04;0.47;;;0.47;;
67363;SDS011;54250;45.572;38.086;2022-12-20T01:57:45;0.10;;;0.10;;
67363;SDS011;54250;45.572;38.086;2022-12-20T02:00:16;2.42;;;1.83;;
67363;SDS011;54250;45.572;38.086;2022-12-20T02:02:44;0.73;;;0.73;;
67363;SDS011;54250;45.572;38.086;2022-12-20T02:05:12;0.20;;;0.20;;
67363;SDS011;54250;45.572;38.086;2022-12-20T02:07:39;0.70;;;0.70;;
67363;SDS011;54250;45.572;38.086;2022-12-20T02:10:08;1.67;;;1.00;;
67363;SDS011;54250;45.572;38.086;2022-12-20T02:12:40;1.83;;;1.27;;
67363;SDS011;54250;45.572;38.086;2022-12-20T02:15:18;0.57;;;0.57;;
67363;SDS011;54250;45.572;38.086;2022-12-20T02:20:57;0.20;;;0.20;;
67363;SDS011;54250;45.572;38.086;2022-12-20T02:23:45;0.22;;;0.22;;
67363;SDS011;54250;45.572;38.086;2022-12-20T02:28:57;0.30;;;0.30;;
67363;SDS011;54250;45.572;38.086;2022-12-20T02:31:42;1.17;;;0.80;;
67363;SDS011;54250;45.572;38.086;2022-12-20T02:34:15;0.10;;;0.10;;
67363;SDS011;54250;45.572;38.086;2022-12-20T02:36:42;0.28;;;0.28;;
67363;SDS011;54250;45.572;38.086;2022-12-20T02:39:11;0.32;;;0.32;;
67363;SDS011;54250;45.572;38.086;2022-12-20T02:41:41;0.40;;;0.40;;
67363;SDS011;54250;45.572;38.086;2022-12-20T02:44:12;0.00;;;0.00;;
67363;SDS011;54250;45.572;38.086;2022-12-20T02:46:59;0.80;;;0.65;;
67363;SDS011;54250;45.572;38.086;2022-12-20T02:49:30;0.13;;;0.13;;
67363;SDS011;54250;45.572;38.086;2022-12-20T02:51:58;0.43;;;0.40;;
67363;SDS011;54250;45.572;38.086;2022-12-20T02:54:27;1.85;;;0.68;;
67363;SDS011;54250;45.572;38.086;2022-12-20T02:56:56;0.50;;;0.50;;
67363;SDS011;54250;45.572;38.086;2022-12-20T03:00:01;0.88;;;0.40;;
67363;SDS011;54250;45.572;38.086;2022-12-20T03:02:38;0.38;;;0.38;;
67363;SDS011;54250;45.572;38.086;2022-12-20T03:05:25;0.38;;;0.38;;
67363;SDS011;54250;45.572;38.086;2022-12-20T03:07:52;0.25;;;0.25;;
67363;SDS011;54250;45.572;38.086;2022-12-20T03:10:21;0.73;;;0.60;;
67363;SDS011;54250;45.572;38.086;2022-12-20T03:12:48;0.68;;;0.68;;
67363;SDS011;54250;45.572;38.086;2022-12-20T03:15:15;0.43;;;0.32;;
67363;SDS011;54250;45.572;38.086;2022-12-20T03:17:42;0.43;;;0.35;;
67363;SDS011;54250;45.572;38.086;2022-12-20T03:20:09;0.43;;;0.43;;
67363;SDS011;54250;45.572;38.086;2022-12-20T03:22:37;0.63;;;0.63;;
67363;SDS011;54250;45.572;38.086;2022-12-20T03:25:04;0.43;;;0.40;;
67363;SDS011;54250;45.572;38.086;2022-12-20T03:27:32;0.85;;;0.63;;
67363;SDS011;54250;45.572;38.086;2022-12-20T03:30:00;0.60;;;0.52;;
67363;SDS011;54250;45.572;38.086;2022-12-20T03:32:29;0.30;;;0.30;;
67363;SDS011;54250;45.572;38.086;2022-12-20T03:34:55;0.47;;;0.47;;
67363;SDS011;54250;45.572;38.086;2022-12-20T03:37:29;0.45;;;0.45;;
67363;SDS011;54250;45.572;38.086;2022-12-20T03:39:56;2.53;;;0.40;;
67363;SDS011;54250;45.572;38.086;2022-12-20T03:42:22;0.63;;;0.57;;
67363;SDS011;54250;45.572;38.086;2022-12-20T03:44:49;0.65;;;0.65;;
67363;SDS011;54250;45.572;38.086;2022-12-20T03:47:21;2.53;;;1.20;;
67363;SDS011;54250;45.572;38.086;2022-12-20T03:49:47;0.30;;;0.30;;
67363;SDS011;54250;45.572;38.086;2022-12-20T03:52:13;0.20;;;0.20;;
67363;SDS011;54250;45.572;38.086;2022-12-20T03:54:40;1.35;;;0.68;;
67363;SDS011;54250;45.572;38.086;2022-12-20T03:57:10;0.05;;;0.05;;
67363;SDS011;54250;45.572;38.086;2022-12-20T03:59:37;0.30;;;0.30;;
67363;SDS011;54250;45.572;38.086;2022-12-20T04:02:05;0.20;;;0.20;;
67363;SDS011;54250;45.572;38.086;2022-12-20T04:04:32;2.65;;;1.00;;
67363;SDS011;54250;45.572;38.086;2022-12-20T04:06:58;1.55;;;1.10;;
67363;SDS011;54250;45.572;38.086;2022-12-20T04:09:25;1.05;;;0.47;;
67363;SDS011;54250;45.572;38.086;2022-12-20T04:12:01;1.38;;;0.88;;
67363;SDS011;54250;45.572;38.086;2022-12-20T04:14:29;4.43;;;1.50;;
67363;SDS011;54250;45.572;38.086;2022-12-20T04:16:55;3.17;;;1.88;;
67363;SDS011;54250;45.572;38.086;2022-12-20T04:19:27;12.68;;;1.75;;
67363;SDS011;54250;45.572;38.086;2022-12-20T04:21:53;0.82;;;0.73;;
67363;SDS011;54250;45.572;38.086;2022-12-20T04:24:21;0.20;;;0.20;;
67363;SDS011;54250;45.572;38.086;2022-12-20T04:26:59;1.67;;;1.42;;
67363;SDS011;54250;45.572;38.086;2022-12-20T04:29:26;3.78;;;2.88;;
67363;SDS011;54250;45.572;38.086;2022-12-20T04:31:52;1.05;;;0.90;;
67363;SDS011;54250;45.572;38.086;2022-12-20T04:34:21;0.65;;;0.57;;
67363;SDS011;54250;45.572;38.086;2022-12-20T04:36:47;0.63;;;0.50;;
67363;SDS011;54250;45.572;38.086;2022-12-20T04:39:21;0.03;;;0.03;;
67363;SDS011;54250;45.572;38.086;2022-12-20T04:42:07;0.25;;;0.25;;
67363;SDS011;54250;45.572;38.086;2022-12-20T04:44:34;0.80;;;0.57;;
67363;SDS011;54250;45.572;38.086;2022-12-20T04:47:01;0.57;;;0.57;;
67363;SDS011;54250;45.572;38.086;2022-12-20T04:49:28;0.90;;;0.45;;
67363;SDS011;54250;45.572;38.086;2022-12-20T04:51:54;1.95;;;0.63;;
67363;SDS011;54250;45.572;38.086;2022-12-20T04:54:40;1.08;;;0.75;;
67363;SDS011;54250;45.572;38.086;2022-12-20T04:57:14;1.30;;;1.10;;
67363;SDS011;54250;45.572;38.086;2022-12-20T04:59:40;0.00;;;0.00;;
67363;SDS011;54250;45.572;38.086;2022-12-20T05:02:06;0.50;;;0.50;;
67363;SDS011;54250;45.572;38.086;2022-12-20T05:04:47;0.22;;;0.22;;
67363;SDS011;54250;45.572;38.086;2022-12-20T05:07:13;0.40;;;0.38;;
67363;SDS011;54250;45.572;38.086;2022-12-20T05:09:45;0.15;;;0.13;;
67363;SDS011;54250;45.572;38.086;2022-12-20T05:12:11;0.30;;;0.30;;
67363;SDS011;54250;45.572;38.086;2022-12-20T05:14:38;0.95;;;0.73;;
67363;SDS011;54250;45.572;38.086;2022-12-20T05:17:04;0.60;;;0.35;;
67363;SDS011;54250;45.572;38.086;2022-12-20T05:19:30;0.52;;;0.52;;
67363;SDS011;54250;45.572;38.086;2022-12-20T05:21:57;0.43;;;0.38;;
67363;SDS011;54250;45.572;38.086;2022-12-20T05:24:57;0.80;;;0.65;;
67363;SDS011;54250;45.572;38.086;2022-12-20T05:27:41;1.27;;;1.13;;
67363;SDS011;54250;45.572;38.086;2022-12-20T05:30:07;0.73;;;0.73;;
67363;SDS011;54250;45.572;38.086;2022-12-20T05:32:34;0.32;;;0.32;;
67363;SDS011;54250;45.572;38.086;2022-12-20T05:35:01;0.20;;;0.20;;
67363;SDS011;54250;45.572;38.086;2022-12-20T05:37:28;5.28;;;1.08;;
67363;SDS011;54250;45.572;38.086;2022-12-20T05:39:57;1.60;;;1.45;;
67363;SDS011;54250;45.572;38.086;2022-12-20T05:42:23;0.25;;;0.25;;
67363;SDS011;54250;45.572;38.086;2022-12-20T05:44:51;1.30;;;1.15;;
67363;SDS011;54250;45.572;38.086;2022-12-20T05:47:19;0.45;;;0.45;;
67363;SDS011;54250;45.572;38.086;2022-12-20T05:49:46;0.10;;;0.10;;
67363;SDS011;54250;45.572;38.086;2022-12-20T05:52:12;1.67;;;0.70;;
67363;SDS011;54250;45.572;38.086;2022-12-20T05:54:39;0.35;;;0.35;;
67363;SDS011;54250;45.572;38.086;2022-12-20T05:57:17;0.52;;;0.47;;
67363;SDS011;54250;45.572;38.086;2022-12-20T05:59:45;2.20;;;1.42;;
67363;SDS011;54250;45.572;38.086;2022-12-20T06:02:21;0.47;;;0.47;;
67363;SDS011;54250;45.572;38.086;2022-12-20T06:04:52;3.80;;;1.20;;
67363;SDS011;54250;45.572;38.086;2022-12-20T06:07:21;0.20;;;0.20;;
67363;SDS011;54250;45.572;38.086;2022-12-20T06:09:51;0.90;;;0.70;;
67363;SDS011;54250;45.572;38.086;2022-12-20T06:12:23;1.60;;;0.95;;
67363;SDS011;54250;45.572;38.086;2022-12-20T06:14:50;0.32;;;0.30;;
67363;SDS011;54250;45.572;38.086;2022-12-20T06:17:16;0.88;;;0.85;;
67363;SDS011;54250;45.572;38.086;2022-12-20T06:19:43;2.30;;;1.25;;
67363;SDS011;54250;45.572;38.086;2022-12-20T06:22:13;1.70;;;1.15;;
67363;SDS011;54250;45.572;38.086;2022-12-20T06:24:46;0.45;;;0.45;;
67363;SDS011;54250;45.572;38.086;2022-12-20T06:27:12;1.92;;;1.30;;
67363;SDS011;54250;45.572;38.086;2022-12-20T06:29:39;1.90;;;1.60;;
67363;SDS011;54250;45.572;38.086;2022-12-20T06:32:09;3.10;;;1.20;;
67363;SDS011;54250;45.572;38.086;2022-12-20T06:34:36;0.52;;;0.52;;
67363;SDS011;54250;45.572;38.086;2022-12-20T06:37:03;1.50;;;1.05;;
67363;SDS011;54250;45.572;38.086;2022-12-20T06:39:32;2.55;;;1.17;;
67363;SDS011;54250;45.572;38.086;2022-12-20T06:42:02;0.40;;;0.40;;
67363;SDS011;54250;45.572;38.086;2022-12-20T06:44:29;2.15;;;1.27;;
67363;SDS011;54250;45.572;38.086;2022-12-20T06:46:55;2.60;;;1.70;;
67363;SDS011;54250;45.572;38.086;2022-12-20T06:49:21;0.70;;;0.70;;
67363;SDS011;54250;45.572;38.086;2022-12-20T06:51:48;3.65;;;2.35;;
67363;SDS011;54250;45.572;38.086;2022-12-20T06:54:18;2.25;;;1.35;;
67363;SDS011;54250;45.572;38.086;2022-12-20T06:56:45;1.40;;;1.23;;
67363;SDS011;54250;45.572;38.086;2022-12-20T06:59:11;14.52;;;2.30;;
67363;SDS011;54250;45.572;38.086;2022-12-20T07:01:38;2.47;;;1.65;;
67363;SDS011;54250;45.572;38.086;2022-12-20T07:04:04;6.70;;;1.58;;
67363;SDS011;54250;45.572;38.086;2022-12-20T07:06:30;7.20;;;2.08;;
67363;SDS011;54250;45.572;38.086;2022-12-20T07:08:56;1.00;;;0.88;;
67363;SDS011;54250;45.572;38.086;2022-12-20T07:11:22;10.30;;;2.25;;
67363;SDS011;54250;45.572;38.086;2022-12-20T07:13:48;1.60;;;1.42;;
67363;SDS011;54250;45.572;38.086;2022-12-20T07:16:18;5.18;;;1.80;;
67363;SDS011;54250;45.572;38.086;2022-12-20T07:18:48;2.58;;;1.83;;
67363;SDS011;54250;45.572;38.086;2022-12-20T07:21:14;1.63;;;1.23;;
67363;SDS011;54250;45.572;38.086;2022-12-20T07:23:41;3.22;;;1.73;;
67363;SDS011;54250;45.572;38.086;2022-12-20T07:26:07;1.65;;;1.05;;
67363;SDS011;54250;45.572;38.086;2022-12-20T07:28:34;2.45;;;1.65;;
67363;SDS011;54250;45.572;38.086;2022-12-20T07:31:01;3.28;;;2.20;;
67363;SDS011;54250;45.572;38.086;2022-12-20T07:33:27;2.63;;;1.60;;
67363;SDS011;54250;45.572;38.086;2022-12-20T07:36:01;5.43;;;1.80;;
67363;SDS011;54250;45.572;38.086;2022-12-20T07:38:35;4.53;;;1.45;;
67363;SDS011;54250;45.572;38.086;2022-12-20T07:41:12;6.85;;;1.73;;
67363;SDS011;54250;45.572;38.086;2022-12-20T07:43:40;1.75;;;1.20;;
67363;SDS011;54250;45.572;38.086;2022-12-20T07:46:07;15.57;;;2.70;;
67363;SDS011;54250;45.572;38.086;2022-12-20T07:48:33;5.78;;;2.75;;
67363;SDS011;54250;45.572;38.086;2022-12-20T07:51:01;1.55;;;1.45;;
67363;SDS011;54250;45.572;38.086;2022-12-20T07:53:31;2.88;;;1.95;;
67363;SDS011;54250;45.572;38.086;2022-12-20T07:56:01;3.22;;;1.83;;
67363;SDS011;54250;45.572;38.086;2022-12-20T07:58:29;2.20;;;1.48;;
67363;SDS011;54250;45.572;38.086;2022-12-20T08:00:56;1.77;;;1.38;;
67363;SDS011;54250;45.572;38.086;2022-12-20T08:03:24;4.43;;;2.42;;
67363;SDS011;54250;45.572;38.086;2022-12-20T08:05:57;4.35;;;2.40;;
67363;SDS011;54250;45.572;38.086;2022-12-20T08:08:28;5.13;;;2.80;;
67363;SDS011;54250;45.572;38.086;2022-12-20T08:10:57;3.70;;;2.15;;
67363;SDS011;54250;45.572;38.086;2022-12-20T08:13:24;4.63;;;2.20;;
67363;SDS011;54250;45.572;38.086;2022-12-20T08:15:50;4.55;;;2.70;;
67363;SDS011;54250;45.572;38.086;2022-12-20T08:18:16;5.63;;;2.75;;
67363;SDS011;54250;45.572;38.086;2022-12-20T08:20:42;2.13;;;1.73;;
67363;SDS011;54250;45.572;38.086;2022-12-20T08:23:08;5.65;;;3.42;;
67363;SDS011;54250;45.572;38.086;2022-12-20T08:25:34;4.57;;;2.45;;
67363;SDS011;54250;45.572;38.086;2022-12-20T08:28:00;2.72;;;1.75;;
67363;SDS011;54250;45.572;38.086;2022-12-20T08:30:28;3.05;;;1.98;;
67363;SDS011;54250;45.572;38.086;2022-12-20T08:32:54;6.25;;;2.58;;
67363;SDS011;54250;45.572;38.086;2022-12-20T08:35:20;4.97;;;2.65;;
67363;SDS011;54250;45.572;38.086;2022-12-20T08:37:47;8.10;;;3.45;;
67363;SDS011;54250;45.572;38.086;2022-12-20T08:40:17;2.70;;;1.77;;
67363;SDS011;54250;45.572;38.086;2022-12-20T08:42:44;3.00;;;1.98;;
67363;SDS011;54250;45.572;38.086;2022-12-20T08:45:10;1.65;;;1.15;;
67363;SDS011;54250;45.572;38.086;2022-12-20T08:47:36;6.40;;;2.42;;
67363;SDS011;54250;45.572;38.086;2022-12-20T08:50:03;1.40;;;1.08;;
67363;SDS011;54250;45.572;38.086;2022-12-20T08:52:29;2.58;;;1.98;;
67363;SDS011;54250;45.572;38.086;2022-12-20T08:54:55;4.03;;;1.88;;
67363;SDS011;54250;45.572;38.086;2022-12-20T08:57:21;2.38;;;1.58;;
67363;SDS011;54250;45.572;38.086;2022-12-20T08:59:48;5.22;;;2.00;;
67363;SDS011;54250;45.572;38.086;2022-12-20T09:02:13;1.40;;;0.95;;
67363;SDS011;54250;45.572;38.086;2022-12-20T09:04:40;4.28;;;2.50;;
67363;SDS011;54250;45.572;38.086;2022-12-20T09:07:06;1.75;;;1.35;;
67363;SDS011;54250;45.572;38.086;2022-12-20T09:09:32;4.97;;;3.15;;
67363;SDS011;54250;45.572;38.086;2022-12-20T09:11:58;2.70;;;1.83;;
67363;SDS011;54250;45.572;38.086;2022-12-20T09:14:24;2.13;;;1.92;;
67363;SDS011;54250;45.572;38.086;2022-12-20T09:16:50;7.70;;;3.20;;
67363;SDS011;54250;45.572;38.086;2022-12-20T09:19:16;4.57;;;2.70;;
67363;SDS011;54250;45.572;38.086;2022-12-20T09:21:42;2.53;;;1.35;;
67363;SDS011;54250;45.572;38.086;2022-12-20T09:24:08;4.25;;;1.67;;
67363;SDS011;54250;45.572;38.086;2022-12-20T09:26:35;2.88;;;1.63;;
67363;SDS011;54250;45.572;38.086;2022-12-20T09:29:01;7.85;;;2.58;;
67363;SDS011;54250;45.572;38.086;2022-12-20T09:31:28;4.15;;;1.95;;
67363;SDS011;54250;45.572;38.086;2022-12-20T09:33:54;4.18;;;1.65;;
67363;SDS011;54250;45.572;38.086;2022-12-20T09:36:22;6.55;;;2.10;;
67363;SDS011;54250;45.572;38.086;2022-12-20T09:38:50;5.15;;;2.10;;
67363;SDS011;54250;45.572;38.086;2022-12-20T09:43:55;3.10;;;1.90;;
67363;SDS011;54250;45.572;38.086;2022-12-20T09:46:22;4.22;;;2.50;;
67363;SDS011;54250;45.572;38.086;2022-12-20T09:48:50;2.65;;;2.03;;
67363;SDS011;54250;45.572;38.086;2022-12-20T09:57:02;6.43;;;3.35;;
67363;SDS011;54250;45.572;38.086;2022-12-20T09:59:43;2.20;;;1.60;;
67363;SDS011;54250;45.572;38.086;2022-12-20T10:02:14;3.22;;;2.03;;
67363;SDS011;54250;45.572;38.086;2022-12-20T10:04:46;1.23;;;1.13;;
67363;SDS011;54250;45.572;38.086;2022-12-20T10:13:15;0.97;;;0.93;;
67363;SDS011;54250;45.572;38.086;2022-12-20T10:20:57;1.75;;;1.27;;
67363;SDS011;54250;45.572;38.086;2022-12-20T10:26:08;13.35;;;2.60;;
67363;SDS011;54250;45.572;38.086;2022-12-20T10:28:36;3.53;;;1.98;;
67363;SDS011;54250;45.572;38.086;2022-12-20T10:31:06;1.50;;;0.90;;
67363;SDS011;54250;45.572;38.086;2022-12-20T10:33:36;0.82;;;0.70;;
67363;SDS011;54250;45.572;38.086;2022-12-20T10:38:55;8.52;;;1.02;;
67363;SDS011;54250;45.572;38.086;2022-12-20T10:41:24;3.13;;;1.23;;
67363;SDS011;54250;45.572;38.086;2022-12-20T10:44:19;1.15;;;0.75;;
67363;SDS011;54250;45.572;38.086;2022-12-20T10:46:50;2.55;;;1.73;;
67363;SDS011;54250;45.572;38.086;2022-12-20T10:49:20;7.20;;;2.00;;
67363;SDS011;54250;45.572;38.086;2022-12-20T10:51:57;3.78;;;0.60;;
67363;SDS011;54250;45.572;38.086;2022-12-20T10:54:29;2.65;;;1.73;;
67363;SDS011;54250;45.572;38.086;2022-12-20T10:56:58;1.63;;;1.48;;
67363;SDS011;54250;45.572;38.086;2022-12-20T10:59:28;1.27;;;0.80;;
67363;SDS011;54250;45.572;38.086;2022-12-20T11:02:01;2.67;;;1.92;;
67363;SDS011;54250;45.572;38.086;2022-12-20T11:04:42;3.83;;;1.77;;
67363;SDS011;54250;45.572;38.086;2022-12-20T11:10:32;5.35;;;1.88;;
67363;SDS011;54250;45.572;38.086;2022-12-20T11:12:59;1.30;;;1.20;;
67363;SDS011;54250;45.572;38.086;2022-12-20T11:15:27;6.55;;;1.92;;
67363;SDS011;54250;45.572;38.086;2022-12-20T11:23:27;4.05;;;1.73;;
67363;SDS011;54250;45.572;38.086;2022-12-20T11:35:24;4.20;;;1.85;;
67363;SDS011;54250;45.572;38.086;2022-12-20T11:52:50;4.22;;;2.42;;
67363;SDS011;54250;45.572;38.086;2022-12-20T11:55:26;3.80;;;1.48;;
67363;SDS011;54250;45.572;38.086;2022-12-20T11:58:10;4.45;;;1.02;;
67363;SDS011;54250;45.572;38.086;2022-12-20T12:03:31;2.17;;;1.70;;
67363;SDS011;54250;45.572;38.086;2022-12-20T12:17:12;0.93;;;0.85;;
67363;SDS011;54250;45.572;38.086;2022-12-20T12:19:49;1.42;;;1.08;;
67363;SDS011;54250;45.572;38.086;2022-12-20T12:22:21;0.45;;;0.45;;
67363;SDS011;54250;45.572;38.086;2022-12-20T12:27:22;1.45;;;0.75;;
67363;SDS011;54250;45.572;38.086;2022-12-20T12:29:51;1.88;;;1.58;;
67363;SDS011;54250;45.572;38.086;2022-12-20T12:46:09;2.10;;;1.05;;
67363;SDS011;54250;45.572;38.086;2022-12-20T12:51:05;2.17;;;0.47;;
67363;SDS011;54250;45.572;38.086;2022-12-20T12:53:48;2.55;;;1.10;;
67363;SDS011;54250;45.572;38.086;2022-12-20T13:02:18;0.70;;;0.63;;
67363;SDS011;54250;45.572;38.086;2022-12-20T13:07:39;3.42;;;1.10;;
67363;SDS011;54250;45.572;38.086;2022-12-20T13:17:47;0.55;;;0.55;;
67363;SDS011;54250;45.572;38.086;2022-12-20T13:20:19;1.35;;;0.90;;
67363;SDS011;54250;45.572;38.086;2022-12-20T13:25:34;6.80;;;3.97;;
67363;SDS011;54250;45.572;38.086;2022-12-20T13:33:43;74.28;;;19.98;;
67363;SDS011;54250;45.572;38.086;2022-12-20T13:38:56;30.33;;;14.05;;
67363;SDS011;54250;45.572;38.086;2022-12-20T13:44:44;4.35;;;2.65;;
67363;SDS011;54250;45.572;38.086;2022-12-20T13:47:18;25.65;;;3.92;;
67363;SDS011;54250;45.572;38.086;2022-12-20T13:49:55;4.97;;;4.47;;
67363;SDS011;54250;45.572;38.086;2022-12-20T13:52:28;16.60;;;4.13;;
67363;SDS011;54250;45.572;38.086;2022-12-20T13:55:01;7.78;;;2.25;;
67363;SDS011;54250;45.572;38.086;2022-12-20T13:57:41;3.80;;;1.80;;
67363;SDS011;54250;45.572;38.086;2022-12-20T14:00:16;2.88;;;1.90;;
67363;SDS011;54250;45.572;38.086;2022-12-20T14:02:51;1.45;;;1.35;;
67363;SDS011;54250;45.572;38.086;2022-12-20T14:05:24;4.75;;;2.30;;
67363;SDS011;54250;45.572;38.086;2022-12-20T14:07:59;0.52;;;0.52;;
67363;SDS011;54250;45.572;38.086;2022-12-20T14:10:29;0.52;;;0.52;;
67363;SDS011;54250;45.572;38.086;2022-12-20T14:12:56;0.98;;;0.95;;
67363;SDS011;54250;45.572;38.086;2022-12-20T14:15:24;3.92;;;1.10;;
67363;SDS011;54250;45.572;38.086;2022-12-20T14:18:15;2.80;;;1.58;;
67363;SDS011;54250;45.572;38.086;2022-12-20T14:20:41;1.52;;;0.85;;
67363;SDS011;54250;45.572;38.086;2022-12-20T14:23:10;1.85;;;0.70;;
67363;SDS011;54250;45.572;38.086;2022-12-20T14:26:01;1.75;;;1.65;;
67363;SDS011;54250;45.572;38.086;2022-12-20T14:31:21;0.65;;;0.65;;
67363;SDS011;54250;45.572;38.086;2022-12-20T14:33:59;1.77;;;0.98;;
67363;SDS011;54250;45.572;38.086;2022-12-20T14:36:30;0.63;;;0.50;;
67363;SDS011;54250;45.572;38.086;2022-12-20T14:38:58;0.63;;;0.60;;
67363;SDS011;54250;45.572;38.086;2022-12-20T14:41:37;7.28;;;1.98;;
67363;SDS011;54250;45.572;38.086;2022-12-20T14:46:48;7.68;;;0.68;;
67363;SDS011;54250;45.572;38.086;2022-12-20T14:49:17;3.17;;;1.45;;
67363;SDS011;54250;45.572;38.086;2022-12-20T14:54:46;1.20;;;1.10;;
67363;SDS011;54250;45.572;38.086;2022-12-20T15:00:09;9.35;;;1.13;;
67363;SDS011;54250;45.572;38.086;2022-12-20T15:08:12;1.88;;;1.73;;
67363;SDS011;54250;45.572;38.086;2022-12-20T15:10:52;0.95;;;0.90;;
67363;SDS011;54250;45.572;38.086;2022-12-20T15:16:21;6.80;;;1.17;;
67363;SDS011;54250;45.572;38.086;2022-12-20T15:18:52;0.95;;;0.73;;
67363;SDS011;54250;45.572;38.086;2022-12-20T15:21:33;0.32;;;0.20;;
67363;SDS011;54250;45.572;38.086;2022-12-20T15:24:17;0.22;;;0.22;;
67363;SDS011;54250;45.572;38.086;2022-12-20T15:26:46;0.70;;;0.70;;
67363;SDS011;54250;45.572;38.086;2022-12-20T15:29:17;1.42;;;1.33;;
67363;SDS011;54250;45.572;38.086;2022-12-20T15:31:45;0.40;;;0.40;;
67363;SDS011;54250;45.572;38.086;2022-12-20T15:37:03;1.35;;;1.10;;
67363;SDS011;54250;45.572;38.086;2022-12-20T15:39:30;1.65;;;1.05;;
67363;SDS011;54250;45.572;38.086;2022-12-20T15:41:57;0.65;;;0.65;;
67363;SDS011;54250;45.572;38.086;2022-12-20T15:44:27;1.33;;;1.10;;
67363;SDS011;54250;45.572;38.086;2022-12-20T15:46:55;1.63;;;1.52;;
67363;SDS011;54250;45.572;38.086;2022-12-20T15:49:22;0.50;;;0.50;;
67363;SDS011;54250;45.572;38.086;2022-12-20T15:51:51;0.57;;;0.55;;
67363;SDS011;54250;45.572;38.086;2022-12-20T15:56:55;1.38;;;0.90;;
67363;SDS011;54250;45.572;38.086;2022-12-20T15:59:23;1.13;;;1.02;;
67363;SDS011;54250;45.572;38.086;2022-12-20T16:01:49;1.27;;;1.10;;
67363;SDS011;54250;45.572;38.086;2022-12-20T16:04:16;0.32;;;0.32;;
67363;SDS011;54250;45.572;38.086;2022-12-20T16:06:45;0.45;;;0.45;;
67363;SDS011;54250;45.572;38.086;2022-12-20T16:09:13;6.55;;;1.02;;
67363;SDS011;54250;45.572;38.086;2022-12-20T16:11:40;0.20;;;0.20;;
67363;SDS011;54250;45.572;38.086;2022-12-20T16:14:18;0.68;;;0.68;;
67363;SDS011;54250;45.572;38.086;2022-12-20T16:16:46;0.55;;;0.55;;
67363;SDS011;54250;45.572;38.086;2022-12-20T16:19:14;0.32;;;0.32;;
67363;SDS011;54250;45.572;38.086;2022-12-20T16:21:45;1.27;;;0.98;;
67363;SDS011;54250;45.572;38.086;2022-12-20T16:24:17;1.40;;;0.85;;
67363;SDS011;54250;45.572;38.086;2022-12-20T16:26:46;1.20;;;0.75;;
67363;SDS011;54250;45.572;38.086;2022-12-20T16:29:13;0.85;;;0.68;;
67363;SDS011;54250;45.572;38.086;2022-12-20T16:31:40;0.40;;;0.40;;
67363;SDS011;54250;45.572;38.086;2022-12-20T16:34:14;0.63;;;0.38;;
67363;SDS011;54250;45.572;38.086;2022-12-20T16:36:41;0.43;;;0.43;;
67363;SDS011;54250;45.572;38.086;2022-12-20T16:39:08;0.68;;;0.60;;
67363;SDS011;54250;45.572;38.086;2022-12-20T16:41:35;1.70;;;0.75;;
67363;SDS011;54250;45.572;38.086;2022-12-20T16:44:04;0.20;;;0.20;;
67363;SDS011;54250;45.572;38.086;2022-12-20T16:46:31;1.67;;;1.55;;
67363;SDS011;54250;45.572;38.086;2022-12-20T16:48:59;0.52;;;0.52;;
67363;SDS011;54250;45.572;38.086;2022-12-20T16:51:29;1.02;;;0.95;;
67363;SDS011;54250;45.572;38.086;2022-12-20T16:54:03;2.03;;;1.30;;
67363;SDS011;54250;45.572;38.086;2022-12-20T16:56:31;1.42;;;1.33;;
67363;SDS011;54250;45.572;38.086;2022-12-20T16:58:57;1.60;;;1.27;;
67363;SDS011;54250;45.572;38.086;2022-12-20T17:01:31;1.92;;;0.77;;
67363;SDS011;54250;45.572;38.086;2022-12-20T17:04:00;0.30;;;0.30;;
67363;SDS011;54250;45.572;38.086;2022-12-20T17:06:28;1.42;;;1.30;;
67363;SDS011;54250;45.572;38.086;2022-12-20T17:08:55;1.30;;;1.20;;
67363;SDS011;54250;45.572;38.086;2022-12-20T17:11:22;6.03;;;1.48;;
67363;SDS011;54250;45.572;38.086;2022-12-20T17:13:51;3.60;;;1.67;;
67363;SDS011;54250;45.572;38.086;2022-12-20T17:16:19;0.50;;;0.40;;
67363;SDS011;54250;45.572;38.086;2022-12-20T17:18:46;0.60;;;0.60;;
67363;SDS011;54250;45.572;38.086;2022-12-20T17:21:19;1.25;;;0.90;;
67363;SDS011;54250;45.572;38.086;2022-12-20T17:23:51;1.13;;;0.88;;
67363;SDS011;54250;45.572;38.086;2022-12-20T17:26:18;0.95;;;0.90;;